Time;durP1;ratioP1;P1;durP2;ratioP2;P2;SDS_P1;SDS_P2;PMS_P1;PMS_P2;Temp;Humidity;BMP_temperature;BMP_pressure;BME280_temperature;BME280_humidity;BME280_pressure;Samples;Min_cycle;Max_cycle;Signal;HPM_P1;HPM_P2
2022/05/01 00:02:05;;;;;;;208.87;200.97;;;7.60;91.50;;;;;;4957453;29;20490;-80
2022/05/01 00:04:32;;;;;;;227.57;218.80;;;7.60;91.60;;;;;;4939621;29;20459;-80
2022/05/01 00:06:59;;;;;;;223.17;214.73;;;7.70;92.00;;;;;;4938501;29;20535;-80
2022/05/01 00:09:25;;;;;;;218.00;209.87;;;7.70;91.80;;;;;;4960972;29;20867;-80
2022/05/01 00:12:04;;;;;;;225.67;217.27;;;7.80;91.50;;;;;;4970030;28;20456;-79
2022/05/01 00:14:31;;;;;;;215.90;207.60;;;7.80;92.30;;;;;;4945408;29;20958;-79
2022/05/01 00:16:58;;;;;;;171.37;164.67;;;7.70;93.10;;;;;;4945445;29;20473;-80
2022/05/01 00:19:25;;;;;;;140.23;133.90;;;8.00;92.70;;;;;;4956232;29;20467;-81
2022/05/01 00:21:51;;;;;;;96.63;92.17;;;7.90;92.20;;;;;;4955729;29;20460;-81
2022/05/01 00:24:18;;;;;;;115.27;109.67;;;8.00;91.60;;;;;;4937829;29;20464;-80
2022/05/01 00:26:45;;;;;;;107.97;103.07;;;8.00;92.30;;;;;;4937639;29;20480;-81
2022/05/01 00:29:13;;;;;;;99.27;94.50;;;8.00;92.00;;;;;;4955145;29;20993;-81
2022/05/01 00:31:40;;;;;;;105.43;100.63;;;8.00;91.60;;;;;;4956828;29;20456;-81
2022/05/01 00:36:59;;;;;;;93.40;89.10;;;8.00;91.70;;;;;;4914046;29;20484;-81
2022/05/01 00:39:26;;;;;;;126.27;120.80;;;8.00;91.70;;;;;;4955970;29;20875;-81
2022/05/01 00:41:53;;;;;;;120.53;114.73;;;7.90;92.30;;;;;;4957062;29;20456;-80
2022/05/01 00:44:22;;;;;;;162.67;156.30;;;8.00;92.50;;;;;;4938182;29;20461;-81
2022/05/01 00:46:50;;;;;;;192.77;185.33;;;7.90;92.90;;;;;;4937828;29;20893;-81
2022/05/01 00:49:19;;;;;;;202.67;194.73;;;7.80;93.30;;;;;;4951859;29;20476;-83
2022/05/01 00:51:49;;;;;;;197.50;190.17;;;7.90;93.40;;;;;;4956837;29;20460;-81
2022/05/01 00:54:17;;;;;;;243.37;234.57;;;7.80;94.60;;;;;;4940014;28;20460;-80
2022/05/01 00:56:46;;;;;;;244.37;234.67;;;7.70;94.60;;;;;;4937477;29;20485;-80
2022/05/01 00:59:13;;;;;;;208.10;200.13;;;7.70;94.90;;;;;;4950366;29;21000;-80
2022/05/01 01:01:43;;;;;;;264.87;254.97;;;7.70;95.30;;;;;;4952993;29;20981;-80
2022/05/01 01:04:10;;;;;;;327.20;315.33;;;7.60;96.20;;;;;;4937157;29;21135;-81
2022/05/01 01:06:37;;;;;;;359.47;346.23;;;7.60;97.40;;;;;;4936933;29;20504;-81
2022/05/01 01:09:04;;;;;;;417.00;401.00;;;7.40;98.40;;;;;;4953124;29;20956;-81
2022/05/01 01:11:31;;;;;;;395.00;380.43;;;7.30;99.80;;;;;;4955710;29;20456;-81
2022/05/01 01:14:00;;;;;;;416.27;400.47;;;7.30;99.90;;;;;;4937950;29;20453;-81
2022/05/01 01:16:27;;;;;;;458.10;440.33;;;7.40;99.90;;;;;;4937258;29;20481;-80
2022/05/01 01:18:55;;;;;;;461.30;443.27;;;7.20;99.90;;;;;;4954234;28;20460;-81
2022/05/01 01:21:23;;;;;;;520.83;498.43;;;7.20;99.90;;;;;;4959994;29;20828;-81
2022/05/01 01:23:52;;;;;;;522.40;499.80;;;7.20;99.90;;;;;;4943901;28;20456;-80
2022/05/01 01:26:19;;;;;;;544.80;520.73;;;7.00;99.90;;;;;;4940964;29;20459;-81
2022/05/01 01:28:47;;;;;;;582.70;556.27;;;6.90;99.90;;;;;;4953803;29;20448;-80
2022/05/01 01:34:01;;;;;;;674.77;639.00;;;6.80;99.90;;;;;;4943783;29;20531;-81
2022/05/01 01:36:30;;;;;;;674.47;638.57;;;7.00;99.90;;;;;;4940227;29;20877;-80
2022/05/01 01:38:57;;;;;;;672.03;636.90;;;7.00;99.90;;;;;;4953916;29;20502;-81
2022/05/01 01:41:27;;;;;;;675.47;640.70;;;6.90;99.90;;;;;;4959544;29;20475;-81
2022/05/01 01:43:54;;;;;;;655.77;623.37;;;6.90;99.90;;;;;;4946740;29;20457;-81
2022/05/01 01:46:21;;;;;;;650.03;617.13;;;6.90;99.90;;;;;;4940412;29;20874;-81
2022/05/01 01:48:48;;;;;;;630.20;599.27;;;7.10;99.90;;;;;;4951228;29;20458;-81
2022/05/01 01:51:15;;;;;;;598.20;570.30;;;7.10;99.90;;;;;;4959435;29;20456;-81
2022/05/01 01:53:44;;;;;;;614.17;585.07;;;7.20;99.90;;;;;;4942454;29;20456;-81
2022/05/01 01:56:11;;;;;;;618.00;587.40;;;7.20;99.90;;;;;;4940012;29;20507;-81
2022/05/01 01:58:40;;;;;;;601.27;572.17;;;7.10;99.90;;;;;;4955793;29;20460;-81
2022/05/01 02:01:08;;;;;;;550.97;526.27;;;7.20;99.90;;;;;;4959074;28;20490;-81
2022/05/01 02:03:34;;;;;;;514.93;492.50;;;7.20;99.90;;;;;;4943290;29;20457;-80
2022/05/01 02:06:03;;;;;;;540.77;516.27;;;7.30;99.90;;;;;;4940582;29;20839;-80
2022/05/01 02:08:30;;;;;;;531.43;507.93;;;7.30;99.90;;;;;;4953090;29;20452;-81
2022/05/01 02:10:58;;;;;;;562.80;535.90;;;7.40;99.90;;;;;;4959145;29;20486;-81
2022/05/01 02:13:25;;;;;;;568.27;542.27;;;7.40;99.90;;;;;;4945972;28;20453;-81
2022/05/01 02:15:52;;;;;;;546.67;521.57;;;7.40;99.90;;;;;;4940437;29;20468;-81
2022/05/01 02:18:18;;;;;;;555.27;528.53;;;7.40;99.90;;;;;;4949570;29;20472;-81
2022/05/01 02:23:30;;;;;;;543.40;518.73;;;7.40;99.90;;;;;;4946860;29;20511;-81
2022/05/01 02:25:58;;;;;;;507.97;486.27;;;7.40;99.90;;;;;;4939351;29;20456;-80
2022/05/01 02:28:26;;;;;;;513.97;491.43;;;7.50;99.90;;;;;;4949209;29;20452;-81
2022/05/01 02:30:53;;;;;;;539.07;515.47;;;7.50;99.90;;;;;;4958389;28;20636;-81
2022/05/01 02:33:20;;;;;;;561.67;535.97;;;7.50;99.90;;;;;;4948942;29;20811;-81
2022/05/01 02:35:47;;;;;;;589.30;561.60;;;7.50;99.90;;;;;;4939513;29;20882;-81
2022/05/01 02:38:14;;;;;;;605.07;576.37;;;7.40;99.90;;;;;;4939420;29;20480;-81
2022/05/01 02:40:41;;;;;;;601.37;572.87;;;7.40;99.90;;;;;;4939440;29;20998;-81
2022/05/01 02:43:09;;;;;;;596.93;568.83;;;7.50;99.90;;;;;;4951553;29;20456;-80
2022/05/01 02:45:35;;;;;;;613.83;584.33;;;7.40;99.90;;;;;;4958106;29;20459;-81
2022/05/01 02:48:02;;;;;;;583.07;554.47;;;7.60;99.90;;;;;;4946217;28;20449;-80
2022/05/01 02:50:29;;;;;;;575.37;547.57;;;7.70;99.90;;;;;;4938508;29;20852;-81
2022/05/01 02:52:57;;;;;;;571.93;544.73;;;7.70;99.90;;;;;;4946754;29;20815;-81
2022/05/01 02:55:23;;;;;;;573.33;546.23;;;7.70;99.90;;;;;;4953951;29;20551;-80
2022/05/01 02:57:50;;;;;;;520.30;497.43;;;7.70;99.90;;;;;;4944438;28;20498;-81
2022/05/01 03:00:18;;;;;;;474.50;454.63;;;7.70;99.90;;;;;;4938483;29;20505;-81
2022/05/01 03:02:46;;;;;;;450.17;431.30;;;7.60;99.90;;;;;;4932576;29;20457;-80
2022/05/01 03:05:12;;;;;;;455.77;436.67;;;7.70;99.90;;;;;;4937397;29;20460;-81
2022/05/01 03:07:39;;;;;;;451.37;432.63;;;7.80;99.90;;;;;;4938466;29;20452;-81
2022/05/01 03:10:08;;;;;;;470.80;451.10;;;7.80;99.90;;;;;;4938135;29;20855;-81
2022/05/01 03:12:37;;;;;;;480.10;459.23;;;7.80;99.90;;;;;;4953642;29;20467;-81
2022/05/01 03:15:05;;;;;;;467.97;447.83;;;7.80;99.90;;;;;;4957781;28;20460;-81
2022/05/01 03:22:57;;;;;;;452.73;433.73;;;7.80;99.90;;;;;;4953009;29;20455;-81
2022/05/01 03:25:24;;;;;;;467.60;448.30;;;7.90;99.90;;;;;;4955758;29;20677;-82
2022/05/01 03:27:52;;;;;;;482.63;462.63;;;7.90;99.90;;;;;;4947425;29;20459;-81
2022/05/01 03:30:20;;;;;;;459.00;439.37;;;7.80;99.90;;;;;;4932447;29;20500;-81
2022/05/01 03:32:48;;;;;;;467.20;447.80;;;7.90;99.90;;;;;;4937897;29;20953;-81
2022/05/01 03:35:15;;;;;;;478.23;457.57;;;7.90;99.90;;;;;;4936529;29;20453;-81
2022/05/01 03:37:42;;;;;;;485.57;464.70;;;7.90;99.90;;;;;;4954955;29;20507;-81
2022/05/01 03:40:13;;;;;;;460.00;441.10;;;7.90;99.90;;;;;;4939874;29;20476;-80
2022/05/01 03:42:39;;;;;;;455.37;436.57;;;8.00;99.90;;;;;;4936248;29;20468;-79
2022/05/01 03:45:07;;;;;;;454.87;435.73;;;8.00;99.90;;;;;;4938196;29;20465;-81
2022/05/01 03:47:34;;;;;;;463.87;443.60;;;8.00;99.90;;;;;;4937047;29;21005;-81
2022/05/01 03:50:02;;;;;;;458.77;439.17;;;8.00;99.90;;;;;;4935986;29;20473;-81
2022/05/01 03:52:29;;;;;;;459.20;439.20;;;8.00;99.90;;;;;;4937798;29;20461;-80
2022/05/01 03:54:55;;;;;;;472.43;451.77;;;8.00;99.90;;;;;;4947529;29;20832;-81
2022/05/01 03:57:22;;;;;;;461.87;441.23;;;8.10;99.90;;;;;;4953788;28;20476;-81
2022/05/01 03:59:49;;;;;;;450.67;431.37;;;8.00;99.90;;;;;;4952471;29;20488;-81
2022/05/01 04:02:16;;;;;;;441.90;423.87;;;8.00;99.90;;;;;;4936685;29;20460;-80
2022/05/01 04:04:43;;;;;;;434.30;415.50;;;8.10;99.90;;;;;;4945095;29;20452;-81
2022/05/01 04:07:12;;;;;;;442.70;423.57;;;8.00;99.90;;;;;;4943220;29;21048;-81
2022/05/01 04:09:39;;;;;;;457.03;437.03;;;8.10;99.90;;;;;;4946714;29;20472;-81
2022/05/01 04:12:07;;;;;;;477.27;456.37;;;8.10;99.90;;;;;;4936022;29;20467;-81
2022/05/01 04:14:34;;;;;;;507.40;483.93;;;8.10;99.90;;;;;;4937379;29;20453;-81
2022/05/01 04:17:01;;;;;;;531.30;506.03;;;8.00;99.90;;;;;;4936020;29;20479;-81
2022/05/01 04:19:28;;;;;;;514.23;490.30;;;8.00;99.90;;;;;;4936186;29;20559;-82
2022/05/01 04:21:55;;;;;;;513.97;490.37;;;8.20;99.90;;;;;;4949999;29;20456;-80
2022/05/01 04:24:23;;;;;;;499.77;476.40;;;8.10;99.90;;;;;;4955230;29;20463;-82
2022/05/01 04:26:50;;;;;;;473.57;452.50;;;8.20;99.90;;;;;;4944430;28;20461;-81
2022/05/01 04:31:58;;;;;;;490.37;467.27;;;8.20;99.90;;;;;;4945529;29;20448;-81
2022/05/01 04:34:24;;;;;;;496.67;472.97;;;8.20;99.90;;;;;;4941496;29;20460;-81
2022/05/01 04:36:51;;;;;;;506.57;482.60;;;8.20;99.90;;;;;;4946098;29;20879;-81
2022/05/01 04:39:18;;;;;;;498.30;474.90;;;8.20;99.90;;;;;;4934571;29;20492;-81
2022/05/01 04:41:46;;;;;;;511.70;487.13;;;8.30;99.90;;;;;;4937408;29;20883;-81
2022/05/01 04:44:13;;;;;;;504.63;479.83;;;8.20;99.90;;;;;;4937620;29;20813;-81
2022/05/01 04:46:40;;;;;;;488.67;465.77;;;8.30;99.90;;;;;;4954955;29;20452;-81
2022/05/01 04:49:06;;;;;;;488.67;465.57;;;8.40;99.90;;;;;;4955705;29;20841;-81
2022/05/01 04:51:33;;;;;;;483.73;458.73;;;8.50;99.90;;;;;;4955264;28;20459;-80
2022/05/01 04:54:00;;;;;;;497.47;473.47;;;8.40;99.90;;;;;;4942677;29;20475;-81
2022/05/01 04:59:13;;;;;;;469.33;447.97;;;8.50;99.90;;;;;;4947854;29;20575;-81
2022/05/01 05:01:41;;;;;;;433.87;415.20;;;8.40;99.90;;;;;;4949417;29;20503;-81
2022/05/01 05:04:08;;;;;;;355.00;340.53;;;8.50;99.90;;;;;;4954553;29;20479;-81
2022/05/01 05:06:34;;;;;;;351.87;337.33;;;8.50;99.90;;;;;;4960433;29;20467;-81
2022/05/01 05:11:46;;;;;;;228.53;219.17;;;8.80;99.90;;;;;;4956792;29;20455;-81
2022/05/01 05:14:14;;;;;;;188.37;180.40;;;8.70;99.90;;;;;;4960379;29;20455;-81
2022/05/01 05:16:41;;;;;;;146.47;139.63;;;8.70;99.90;;;;;;4946545;29;20463;-81
2022/05/01 05:19:07;;;;;;;184.23;175.87;;;8.90;98.60;;;;;;4937893;29;20476;-81
2022/05/01 05:21:34;;;;;;;177.83;169.60;;;8.90;99.70;;;;;;4945718;29;20452;-81
2022/05/01 05:24:01;;;;;;;165.73;158.13;;;8.90;99.70;;;;;;4950496;29;20452;-81
2022/05/01 05:26:28;;;;;;;128.40;121.50;;;9.00;99.40;;;;;;4947408;29;20495;-82
2022/05/01 05:28:54;;;;;;;142.73;135.63;;;9.00;98.80;;;;;;4944645;29;20461;-80
2022/05/01 05:31:22;;;;;;;99.73;94.43;;;9.10;99.30;;;;;;4944483;29;20464;-82
2022/05/01 05:33:52;;;;;;;110.37;104.37;;;9.10;97.50;;;;;;4959636;28;20455;-80
2022/05/01 05:36:19;;;;;;;81.47;76.77;;;9.10;97.30;;;;;;4949471;28;20457;-81
2022/05/01 05:38:45;;;;;;;77.07;71.97;;;9.20;96.50;;;;;;4949668;29;21024;-81
2022/05/01 05:41:12;;;;;;;82.53;77.27;;;9.30;95.80;;;;;;4950590;29;20487;-82
2022/05/01 05:43:39;;;;;;;68.00;63.40;;;9.40;96.10;;;;;;4957799;29;20848;-82
2022/05/01 05:46:06;;;;;;;63.90;59.57;;;9.40;94.80;;;;;;4943215;29;20482;-82
2022/05/01 05:48:37;;;;;;;37.10;33.63;;;9.50;94.20;;;;;;4947119;29;20951;-82
2022/05/01 05:51:04;;;;;;;34.90;31.57;;;9.50;91.40;;;;;;4939384;29;20481;-82
2022/05/01 05:53:30;;;;;;;37.53;34.00;;;9.60;91.60;;;;;;4938595;29;20464;-81
2022/05/01 05:55:57;;;;;;;29.90;24.40;;;9.60;91.50;;;;;;4939996;29;20452;-82
2022/05/01 05:58:24;;;;;;;29.60;26.37;;;9.70;88.80;;;;;;4938218;29;20481;-82
2022/05/01 06:00:51;;;;;;;27.00;20.77;;;9.70;90.00;;;;;;4938668;29;20484;-82
2022/05/01 06:03:19;;;;;;;27.43;21.87;;;9.70;87.00;;;;;;4940598;29;20465;-82
2022/05/01 06:05:47;;;;;;;29.30;23.47;;;9.80;85.50;;;;;;4944512;29;20459;-81
2022/05/01 06:08:15;;;;;;;30.10;23.50;;;9.90;83.10;;;;;;4940951;29;20463;-82
2022/05/01 06:10:42;;;;;;;31.27;21.30;;;9.90;85.50;;;;;;4942944;29;20484;-82
2022/05/01 06:13:09;;;;;;;25.90;19.07;;;10.00;80.20;;;;;;4956415;29;20482;-80
2022/05/01 06:15:37;;;;;;;22.90;18.20;;;10.00;80.60;;;;;;4945828;29;20484;-82
2022/05/01 06:18:04;;;;;;;24.07;19.20;;;10.20;78.10;;;;;;4954989;29;20472;-81
2022/05/01 06:20:30;;;;;;;24.37;20.77;;;10.20;77.10;;;;;;4951912;28;20864;-82
2022/05/01 06:22:58;;;;;;;25.70;19.30;;;10.30;77.20;;;;;;4957369;29;20456;-82
2022/05/01 06:25:25;;;;;;;30.20;19.13;;;10.30;73.30;;;;;;4953669;29;20460;-81
2022/05/01 06:27:52;;;;;;;25.60;21.23;;;10.30;72.20;;;;;;4947062;29;20965;-81
2022/05/01 06:30:19;;;;;;;36.63;23.20;;;10.50;73.90;;;;;;4944647;29;21055;-82
2022/05/01 06:32:46;;;;;;;29.43;19.40;;;10.60;73.70;;;;;;4952658;29;20460;-81
2022/05/01 06:35:12;;;;;;;25.40;19.17;;;10.70;71.80;;;;;;4959023;29;20449;-81
2022/05/01 06:37:40;;;;;;;28.43;18.40;;;10.90;69.90;;;;;;4959208;29;20462;-80
2022/05/01 06:40:09;;;;;;;26.13;19.70;;;11.00;68.00;;;;;;4969663;29;20468;-80
2022/05/01 06:42:36;;;;;;;22.47;17.23;;;11.20;67.80;;;;;;4960420;29;20453;-81
2022/05/01 06:45:04;;;;;;;25.30;19.23;;;11.30;64.00;;;;;;4946256;29;20452;-81
2022/05/01 06:47:31;;;;;;;25.97;18.00;;;11.70;64.10;;;;;;4941654;29;20972;-82
2022/05/01 06:49:57;;;;;;;25.60;17.00;;;11.60;60.80;;;;;;4947288;29;20469;-83
2022/05/01 06:52:25;;;;;;;24.50;17.50;;;11.90;58.70;;;;;;4939263;29;20463;-84
2022/05/01 06:54:53;;;;;;;29.77;18.23;;;12.10;60.00;;;;;;4948655;29;20454;-82
2022/05/01 06:57:21;;;;;;;26.47;18.57;;;12.20;57.20;;;;;;4958349;29;20455;-81
2022/05/01 06:59:48;;;;;;;22.97;17.80;;;12.50;54.90;;;;;;4957056;28;20490;-82
2022/05/01 07:02:15;;;;;;;25.43;19.20;;;12.60;54.00;;;;;;4950252;29;20459;-82
2022/05/01 07:04:41;;;;;;;24.50;16.10;;;12.70;53.30;;;;;;4958483;29;20466;-82
2022/05/01 07:07:08;;;;;;;22.90;18.67;;;12.90;50.80;;;;;;4955419;29;20472;-82
2022/05/01 07:09:35;;;;;;;25.10;17.30;;;13.00;49.40;;;;;;4948082;29;20476;-81
2022/05/01 07:12:02;;;;;;;21.07;16.73;;;13.20;46.90;;;;;;4939190;29;20973;-81
2022/05/01 07:14:30;;;;;;;21.40;16.20;;;13.30;46.30;;;;;;4940919;29;20457;-83
2022/05/01 07:16:57;;;;;;;23.07;17.13;;;13.70;45.40;;;;;;4937389;29;20861;-82
2022/05/01 07:19:23;;;;;;;22.43;17.10;;;14.00;46.30;;;;;;4937644;29;20862;-82
2022/05/01 07:21:51;;;;;;;22.57;16.97;;;13.90;42.30;;;;;;4937000;29;20468;-82
2022/05/01 07:24:18;;;;;;;24.50;17.53;;;14.00;41.50;;;;;;4952607;29;20484;-80
2022/05/01 07:26:45;;;;;;;22.80;16.57;;;14.10;42.80;;;;;;4956768;29;20847;-81
2022/05/01 07:29:11;;;;;;;21.77;16.83;;;14.30;40.60;;;;;;4941473;29;20478;-82
2022/05/01 07:31:41;;;;;;;21.97;18.97;;;14.30;40.70;;;;;;4951644;29;20460;-82
2022/05/01 07:34:08;;;;;;;22.13;16.53;;;14.80;41.00;;;;;;4937298;29;20458;-80
2022/05/01 07:36:35;;;;;;;20.20;16.30;;;14.40;38.30;;;;;;4944765;29;20460;-82
2022/05/01 07:39:02;;;;;;;18.10;15.67;;;14.50;37.90;;;;;;4940049;28;20472;-83
2022/05/01 07:41:29;;;;;;;22.90;16.70;;;14.80;37.00;;;;;;4938137;29;20511;-82
2022/05/01 07:43:56;;;;;;;19.53;13.87;;;14.60;36.30;;;;;;4937235;29;20450;-82
2022/05/01 07:46:23;;;;;;;17.83;15.10;;;14.70;36.90;;;;;;4945195;29;20516;-82
2022/05/01 07:48:51;;;;;;;22.20;15.53;;;14.90;32.70;;;;;;4940844;29;20730;-82
2022/05/01 07:51:18;;;;;;;16.30;13.20;;;14.90;32.30;;;;;;4956365;29;20470;-82
2022/05/01 07:53:45;;;;;;;21.63;12.37;;;14.80;32.00;;;;;;4957077;29;20459;-82
2022/05/01 07:56:12;;;;;;;17.23;13.00;;;14.80;29.50;;;;;;4956902;28;20461;-82
2022/05/01 07:58:39;;;;;;;17.30;13.20;;;14.60;30.00;;;;;;4955894;29;20863;-83
2022/05/01 08:01:05;;;;;;;18.23;13.93;;;14.80;29.00;;;;;;4957251;29;21027;-82
2022/05/01 08:06:29;;;;;;;16.97;11.60;;;15.30;25.70;;;;;;4916571;29;20712;-82
2022/05/01 08:08:56;;;;;;;17.73;13.13;;;15.80;29.20;;;;;;4946840;29;20455;-82
2022/05/01 08:11:23;;;;;;;20.83;14.00;;;16.10;24.20;;;;;;4957290;29;20454;-82
2022/05/01 08:13:50;;;;;;;15.80;11.13;;;16.10;25.40;;;;;;4957166;29;20470;-82
2022/05/01 08:16:18;;;;;;;17.10;10.73;;;15.90;23.30;;;;;;4957329;29;20453;-82
2022/05/01 08:21:32;;;;;;;14.70;11.50;;;16.10;22.60;;;;;;4957540;29;20487;-83
2022/05/01 08:23:59;;;;;;;18.30;10.83;;;15.70;23.80;;;;;;4956601;29;20465;-82
2022/05/01 08:26:26;;;;;;;16.13;11.63;;;15.80;23.10;;;;;;4956871;29;20453;-83
2022/05/01 08:28:55;;;;;;;11.53;6.93;;;15.90;21.00;;;;;;4956113;29;20454;-83
2022/05/01 08:31:22;;;;;;;9.37;6.77;;;16.10;19.50;;;;;;4957362;29;20458;-82
2022/05/01 08:33:49;;;;;;;11.63;9.23;;;16.00;21.20;;;;;;4957099;29;20464;-82
2022/05/01 08:36:15;;;;;;;13.30;10.30;;;15.80;18.70;;;;;;4957139;29;20457;-83
2022/05/01 08:38:44;;;;;;;14.07;10.60;;;16.40;20.40;;;;;;4955863;29;20486;-82
2022/05/01 08:41:12;;;;;;;15.23;10.80;;;16.30;18.90;;;;;;4957425;29;20888;-82
2022/05/01 08:43:39;;;;;;;15.90;11.30;;;16.70;16.90;;;;;;4957141;29;20466;-83
2022/05/01 08:46:27;;;;;;;21.03;11.63;;;16.90;17.50;;;;;;4957304;29;20468;-82
2022/05/01 08:49:01;;;;;;;18.43;14.10;;;16.00;18.40;;;;;;4956132;29;20448;-82
2022/05/01 08:51:30;;;;;;;20.07;12.20;;;16.50;18.50;;;;;;4956996;28;20517;-82
2022/05/01 08:53:59;;;;;;;18.63;9.77;;;16.20;20.80;;;;;;4957186;29;20460;-82
2022/05/01 08:56:26;;;;;;;16.33;10.97;;;15.90;16.80;;;;;;4957238;29;20465;-82
2022/05/01 08:58:54;;;;;;;19.70;13.60;;;16.40;18.00;;;;;;4960384;28;20498;-82
2022/05/01 09:01:21;;;;;;;25.13;14.00;;;15.90;17.90;;;;;;4957184;29;20882;-82
2022/05/01 09:03:48;;;;;;;16.37;12.10;;;15.60;18.70;;;;;;4957902;29;20541;-82
2022/05/01 09:06:14;;;;;;;16.00;12.23;;;15.60;19.40;;;;;;4958450;29;20456;-82
2022/05/01 09:08:41;;;;;;;24.00;14.23;;;15.40;17.20;;;;;;4956835;28;20467;-81
2022/05/01 09:13:54;;;;;;;16.87;11.80;;;15.20;21.30;;;;;;4957605;29;20450;-82
2022/05/01 09:16:21;;;;;;;22.57;13.70;;;14.90;19.30;;;;;;4956743;29;20877;-82
2022/05/01 09:18:49;;;;;;;21.60;12.97;;;14.90;20.10;;;;;;4956080;29;20492;-82
2022/05/01 09:21:16;;;;;;;19.73;14.50;;;14.60;19.40;;;;;;4956891;29;20530;-82
2022/05/01 09:23:44;;;;;;;21.60;15.73;;;14.80;21.70;;;;;;4957467;29;20483;-82
2022/05/01 09:26:14;;;;;;;16.60;11.03;;;14.80;20.70;;;;;;4956730;29;20498;-82
2022/05/01 09:28:49;;;;;;;17.60;12.90;;;14.80;19.30;;;;;;4956044;29;20464;-82
2022/05/01 09:31:16;;;;;;;18.47;13.00;;;14.80;19.90;;;;;;4956883;29;20509;-82
2022/05/01 09:33:43;;;;;;;17.60;12.20;;;14.60;18.00;;;;;;4956625;29;20469;-82
2022/05/01 09:36:36;;;;;;;22.90;16.57;;;14.40;20.30;;;;;;4956565;29;20458;-82
2022/05/01 09:39:04;;;;;;;21.17;14.80;;;14.40;21.30;;;;;;4956001;28;20536;-83
2022/05/01 09:41:30;;;;;;;19.77;13.77;;;14.20;20.40;;;;;;4960452;29;20464;-82
2022/05/01 09:43:57;;;;;;;18.80;15.53;;;14.30;21.10;;;;;;4960268;29;20992;-82
2022/05/01 09:46:27;;;;;;;19.83;13.30;;;14.20;21.90;;;;;;4959699;29;20482;-82
2022/05/01 09:49:00;;;;;;;22.47;15.60;;;14.40;21.90;;;;;;4959345;29;20456;-82
2022/05/01 09:51:28;;;;;;;27.33;17.33;;;14.60;21.80;;;;;;4959339;29;20496;-82
2022/05/01 09:53:57;;;;;;;26.30;19.77;;;14.60;20.70;;;;;;4959822;29;20989;-82
2022/05/01 09:56:24;;;;;;;24.07;15.97;;;14.50;23.10;;;;;;4960373;29;20463;-82
2022/05/01 09:59:01;;;;;;;22.17;16.47;;;14.50;22.50;;;;;;4959417;29;20459;-82
2022/05/01 10:01:28;;;;;;;29.30;17.27;;;14.30;16.80;;;;;;4958317;29;20890;-81
2022/05/01 10:03:56;;;;;;;28.87;18.10;;;14.30;16.50;;;;;;4960120;29;20461;-82
2022/05/01 10:06:24;;;;;;;29.27;16.67;;;14.40;19.30;;;;;;4959783;28;20456;-83
2022/05/01 10:08:51;;;;;;;17.40;13.70;;;14.40;17.10;;;;;;4959356;29;20569;-82
2022/05/01 10:11:19;;;;;;;19.53;14.27;;;14.40;15.70;;;;;;4960293;29;20532;-82
2022/05/01 10:13:46;;;;;;;22.30;16.80;;;14.50;18.60;;;;;;4959855;29;20456;-82
2022/05/01 10:16:15;;;;;;;19.77;15.53;;;14.60;17.30;;;;;;4959958;29;20945;-82
2022/05/01 10:18:43;;;;;;;19.83;17.30;;;14.80;20.10;;;;;;4959293;29;20515;-82
2022/05/01 10:21:10;;;;;;;26.00;18.40;;;14.80;18.30;;;;;;4959993;29;20873;-81
2022/05/01 10:23:37;;;;;;;23.07;17.10;;;14.80;17.00;;;;;;4960089;29;20465;-82
2022/05/01 10:26:13;;;;;;;24.13;18.47;;;15.10;19.30;;;;;;4959853;29;20465;-82
2022/05/01 10:28:55;;;;;;;22.83;18.27;;;15.00;19.40;;;;;;4959657;29;20520;-82
2022/05/01 10:34:38;;;;;;;23.30;15.20;;;14.90;16.00;;;;;;4959758;29;20464;-82
2022/05/01 10:37:28;;;;;;;24.00;19.10;;;15.00;16.10;;;;;;4959851;28;20594;-82
2022/05/01 10:39:56;;;;;;;21.77;17.10;;;15.10;16.20;;;;;;4959241;29;20512;-83
2022/05/01 10:42:38;;;;;;;26.73;17.33;;;15.30;17.50;;;;;;4959772;29;20459;-82
2022/05/01 10:45:35;;;;;;;22.73;17.80;;;15.20;17.70;;;;;;4959904;29;20909;-82
2022/05/01 10:48:11;;;;;;;24.80;19.30;;;15.30;16.40;;;;;;4959553;29;20453;-82
2022/05/01 10:50:39;;;;;;;20.40;15.20;;;15.50;16.50;;;;;;4959518;28;20714;-82
2022/05/01 10:53:08;;;;;;;26.70;19.00;;;15.60;15.00;;;;;;4959068;29;20459;-82
2022/05/01 10:55:45;;;;;;;20.63;14.30;;;15.70;14.70;;;;;;4959535;29;20535;-82
2022/05/01 10:58:22;;;;;;;27.17;18.37;;;15.70;13.80;;;;;;4958882;29;20452;-81
2022/05/01 11:00:51;;;;;;;19.57;15.23;;;15.60;11.90;;;;;;4959531;28;20491;-81
2022/05/01 11:03:27;;;;;;;22.10;18.30;;;15.70;12.10;;;;;;4957716;29;20840;-82
2022/05/01 11:05:56;;;;;;;22.77;17.53;;;16.00;11.40;;;;;;4959995;29;20454;-82
2022/05/01 11:08:25;;;;;;;23.93;16.63;;;15.90;14.40;;;;;;4959194;29;20515;-81
2022/05/01 11:10:55;;;;;;;30.63;19.17;;;16.10;10.90;;;;;;4959164;29;20535;-82
2022/05/01 11:13:28;;;;;;;19.50;17.03;;;16.50;12.80;;;;;;4959658;29;20997;-82
2022/05/01 11:15:55;;;;;;;18.70;15.63;;;16.40;9.60;;;;;;4958882;29;20467;-82
2022/05/01 11:18:30;;;;;;;23.10;18.90;;;16.30;9.60;;;;;;4958713;29;20552;-82
2022/05/01 11:21:18;;;;;;;24.23;19.90;;;16.40;9.60;;;;;;4959129;29;20495;-82
2022/05/01 11:23:45;;;;;;;25.23;20.87;;;16.40;12.80;;;;;;4958270;29;20487;-83
2022/05/01 11:26:17;;;;;;;25.07;18.13;;;16.40;10.50;;;;;;4958415;29;20963;-83
2022/05/01 11:28:53;;;;;;;21.93;16.63;;;16.80;10.00;;;;;;4958128;29;20464;-82
2022/05/01 11:31:49;;;;;;;28.37;20.40;;;16.80;9.60;;;;;;4958603;28;20462;-82
2022/05/01 11:34:54;;;;;;;19.20;13.97;;;16.90;10.90;;;;;;4958126;28;20879;-82
2022/05/01 11:37:24;;;;;;;28.33;19.27;;;17.10;11.60;;;;;;4958042;29;20996;-83
2022/05/01 11:40:23;;;;;;;20.83;15.10;;;17.90;6.10;;;;;;4956912;29;20485;-81
2022/05/01 11:42:51;;;;;;;20.90;15.80;;;18.20;3.20;;;;;;4957665;29;21024;-82
2022/05/01 11:45:19;;;;;;;20.60;17.47;;;18.60;4.50;;;;;;4957997;29;20459;-82
2022/05/01 11:47:50;;;;;;;18.00;13.63;;;19.00;4.60;;;;;;4958318;29;20457;-83
2022/05/01 11:50:24;;;;;;;22.47;16.63;;;18.90;1.00;;;;;;4957540;28;20845;-82
2022/05/01 11:52:57;;;;;;;17.90;15.27;;;19.10;1.00;;;;;;4958302;28;20890;-82
2022/05/01 12:03:36;;;;;;;21.60;16.37;;;19.90;1.00;;;;;;4957158;28;20573;-83
2022/05/01 12:06:04;;;;;;;17.70;15.70;;;20.00;1.00;;;;;;4958445;29;20468;-83
2022/05/01 12:08:31;;;;;;;19.53;16.50;;;20.20;1.00;;;;;;4956945;29;20467;-83
2022/05/01 12:10:58;;;;;;;17.93;16.00;;;20.60;1.00;;;;;;4957627;29;20486;-82
2022/05/01 12:13:27;;;;;;;17.50;15.50;;;19.60;1.00;;;;;;4958452;29;20466;-82
2022/05/01 12:15:55;;;;;;;18.27;14.73;;;18.70;1.00;;;;;;4957208;29;20988;-83
2022/05/01 12:18:23;;;;;;;20.73;18.10;;;18.10;1.00;;;;;;4956873;29;20468;-83
2022/05/01 12:20:51;;;;;;;22.67;15.80;;;17.60;1.60;;;;;;4957202;29;20503;-82
2022/05/01 12:23:21;;;;;;;19.57;16.33;;;17.40;1.00;;;;;;4957622;28;20485;-83
2022/05/01 12:25:50;;;;;;;24.07;16.40;;;17.70;2.60;;;;;;4957815;29;20459;-82
2022/05/01 12:28:18;;;;;;;19.37;15.40;;;17.30;3.40;;;;;;4956879;29;20962;-82
2022/05/01 12:30:45;;;;;;;20.73;16.10;;;17.40;1.40;;;;;;4957527;29;20491;-82
2022/05/01 12:33:19;;;;;;;19.63;17.30;;;18.00;1.00;;;;;;4958359;29;20826;-82
2022/05/01 12:35:58;;;;;;;24.20;18.57;;;19.00;1.00;;;;;;4963226;28;20514;-83
2022/05/01 12:38:29;;;;;;;18.20;14.50;;;18.70;1.00;;;;;;4961976;29;20468;-83
2022/05/01 12:43:55;;;;;;;19.67;17.60;;;18.00;1.00;;;;;;4964070;29;20950;-84
2022/05/01 12:46:27;;;;;;;20.60;18.40;;;17.70;1.30;;;;;;4957369;29;20546;-82
2022/05/01 12:48:54;;;;;;;22.23;17.70;;;17.40;2.40;;;;;;4956608;29;20460;-82
2022/05/01 12:51:21;;;;;;;19.73;16.63;;;16.80;2.20;;;;;;4956834;29;20479;-82
2022/05/01 12:53:49;;;;;;;18.77;14.90;;;16.60;1.70;;;;;;4956944;28;21065;-82
2022/05/01 12:56:18;;;;;;;20.57;14.50;;;16.50;2.10;;;;;;4957193;29;20470;-82
2022/05/01 12:58:45;;;;;;;22.03;17.50;;;16.50;2.60;;;;;;4956578;29;20502;-82
2022/05/01 13:01:23;;;;;;;19.87;17.00;;;16.60;2.10;;;;;;4955252;29;20544;-82
2022/05/01 13:03:50;;;;;;;19.70;16.77;;;16.90;2.00;;;;;;4957039;29;20893;-84
2022/05/01 13:06:18;;;;;;;23.80;18.60;;;17.00;2.40;;;;;;4956952;29;20458;-82
2022/05/01 13:08:46;;;;;;;22.33;18.57;;;16.80;2.30;;;;;;4956223;29;20851;-82
2022/05/01 13:11:23;;;;;;;20.73;18.00;;;17.50;2.80;;;;;;4957056;29;20497;-83
2022/05/01 13:13:52;;;;;;;23.27;17.47;;;17.90;2.70;;;;;;4957867;28;20468;-83
2022/05/01 13:16:22;;;;;;;22.83;17.97;;;17.80;3.00;;;;;;4960690;29;20465;-83
2022/05/01 13:18:52;;;;;;;22.80;16.40;;;17.70;1.10;;;;;;4960114;29;20494;-82